createdAt,value
2022-11-06T00:02:37.609Z,5.84
2022-11-06T00:07:40.135Z,5.80
2022-11-06T00:12:42.696Z,5.73
2022-11-06T00:17:48.748Z,5.69
2022-11-06T00:22:51.224Z,5.68
2022-11-06T00:27:53.856Z,5.68
2022-11-06T00:32:56.388Z,5.67
2022-11-06T00:37:58.993Z,5.63
2022-11-06T00:43:01.503Z,5.57
2022-11-06T00:48:04.209Z,5.51
2022-11-06T00:53:06.678Z,5.48
2022-11-06T00:58:09.163Z,5.43
2022-11-06T01:03:11.753Z,5.37
2022-11-06T01:08:14.733Z,5.29
2022-11-06T01:13:17.673Z,5.20
2022-11-06T01:18:20.228Z,5.13
2022-11-06T01:23:22.779Z,5.08
2022-11-06T01:28:27.096Z,5.04
2022-11-06T01:33:32.052Z,5.03
2022-11-06T01:38:34.627Z,5.00
2022-11-06T01:43:43.639Z,4.94
2022-11-06T01:48:52.808Z,4.92
2022-11-06T01:53:56.102Z,4.92
2022-11-06T01:58:58.890Z,4.91
2022-11-06T02:04:09.242Z,4.88
2022-11-06T02:09:13.531Z,4.88
2022-11-06T02:14:21.985Z,4.88
2022-11-06T02:19:49.040Z,4.87
2022-11-06T02:25:03.756Z,4.84
2022-11-06T02:30:10.687Z,4.77
2022-11-06T02:35:17.061Z,4.70
2022-11-06T02:40:24.232Z,4.65
2022-11-06T02:45:30.286Z,4.62
2022-11-06T02:50:40.100Z,4.59
2022-11-06T02:55:48.312Z,4.55
2022-11-06T03:00:57.764Z,4.51
2022-11-06T03:06:10.022Z,4.50
2022-11-06T03:11:17.197Z,4.47
2022-11-06T03:16:26.847Z,4.43
2022-11-06T03:21:38.395Z,4.40
2022-11-06T03:26:47.347Z,4.39
2022-11-06T03:31:56.084Z,4.39
2022-11-06T03:37:05.409Z,4.37
2022-11-06T03:42:15.461Z,4.33
2022-11-06T03:47:20.915Z,4.30
2022-11-06T03:52:30.286Z,4.25
2022-11-06T03:57:39.848Z,4.20
2022-11-06T04:02:48.515Z,4.17
2022-11-06T04:07:58.584Z,4.18
2022-11-06T04:13:04.021Z,4.22
2022-11-06T04:18:13.122Z,4.21
2022-11-06T04:23:38.683Z,4.16
2022-11-06T04:28:49.405Z,4.15
2022-11-06T04:33:54.765Z,4.16
2022-11-06T04:39:06.018Z,4.19
2022-11-06T04:44:12.372Z,4.19
2022-11-06T04:49:15.797Z,4.18
2022-11-06T04:54:19.099Z,4.18
2022-11-06T04:59:23.794Z,4.18
2022-11-06T05:04:26.274Z,4.18
2022-11-06T05:09:29.044Z,4.14
2022-11-06T05:14:32.584Z,4.09
2022-11-06T05:19:35.119Z,4.04
2022-11-06T05:24:37.711Z,4.02
2022-11-06T05:29:42.720Z,4.00
2022-11-06T05:34:46.763Z,3.97
2022-11-06T05:39:49.233Z,3.93
2022-11-06T05:44:51.685Z,3.89
2022-11-06T05:49:54.150Z,3.88
2022-11-06T05:54:56.669Z,3.90
2022-11-06T05:59:59.209Z,3.94
2022-11-06T06:05:01.673Z,4.04
2022-11-06T06:10:04.541Z,4.16
2022-11-06T06:15:09.838Z,4.33
2022-11-06T06:20:13.174Z,4.48
2022-11-06T06:25:22.632Z,4.57
2022-11-06T06:30:25.750Z,4.64
2022-11-06T06:35:28.204Z,4.71
2022-11-06T06:40:30.788Z,4.82
2022-11-06T06:45:33.286Z,4.97
2022-11-06T06:50:35.860Z,5.11
2022-11-06T06:55:38.345Z,5.21
2022-11-06T07:00:41.104Z,5.31
2022-11-06T07:05:43.749Z,5.35
2022-11-06T07:10:46.285Z,5.35
2022-11-06T07:22:40.974Z,5.35
2022-11-06T07:27:43.466Z,5.26
2022-11-06T07:32:46.053Z,5.33
2022-11-06T07:37:48.706Z,5.43
2022-11-06T07:42:51.293Z,5.63
2022-11-06T07:47:59.079Z,5.88
2022-11-06T07:53:03.206Z,6.18
2022-11-06T07:58:05.684Z,6.43
2022-11-06T08:03:08.156Z,6.62
2022-11-06T08:08:11.798Z,6.89
2022-11-06T08:13:16.591Z,7.00
2022-11-06T08:18:19.074Z,7.18
2022-11-06T08:23:21.775Z,7.38
2022-11-06T08:28:25.875Z,7.60
2022-11-06T08:33:28.419Z,7.82
2022-11-06T08:38:31.233Z,7.95
2022-11-06T08:43:34.855Z,7.99
2022-11-06T08:48:37.367Z,8.02
2022-11-06T08:53:39.937Z,7.98
2022-11-06T08:58:42.860Z,8.08
2022-11-06T09:03:45.443Z,8.24
2022-11-06T09:08:47.937Z,8.51
2022-11-06T09:13:50.880Z,8.69
2022-11-06T09:18:55.573Z,8.80
2022-11-06T09:23:58.059Z,8.96
2022-11-06T09:29:00.651Z,9.06
2022-11-06T09:34:03.180Z,9.18
2022-11-06T09:39:06.390Z,9.33
2022-11-06T09:44:25.533Z,9.40
2022-11-06T09:49:33.689Z,9.22
2022-11-06T09:54:36.175Z,9.27
2022-11-06T09:59:41.355Z,9.23
2022-11-06T10:04:51.327Z,9.29
2022-11-06T10:09:54.070Z,9.42
2022-11-06T10:15:07.561Z,9.52
2022-11-06T10:20:23.837Z,9.55
2022-11-06T10:25:35.029Z,9.52
2022-11-06T10:30:45.085Z,9.62
2022-11-06T10:35:54.026Z,9.55
2022-11-06T10:40:56.927Z,9.39
2022-11-06T10:46:05.284Z,9.28
2022-11-06T10:51:16.051Z,9.40
2022-11-06T10:56:30.795Z,9.56
2022-11-06T11:01:33.664Z,9.75
2022-11-06T11:06:39.197Z,9.96
2022-11-06T11:11:49.703Z,10.12
2022-11-06T11:16:52.970Z,10.30
2022-11-06T11:21:59.356Z,10.41
2022-11-06T11:27:05.637Z,10.59
2022-11-06T11:32:08.766Z,10.75
2022-11-06T11:37:24.988Z,10.93
2022-11-06T11:42:31.297Z,11.01
2022-11-06T11:47:34.508Z,11.15
2022-11-06T11:52:40.999Z,11.28
2022-11-06T11:57:48.543Z,11.42
2022-11-06T12:02:59.725Z,11.53
2022-11-06T12:08:03.051Z,11.51
2022-11-06T12:13:16.474Z,11.49
2022-11-06T12:18:26.343Z,11.51
2022-11-06T12:23:37.792Z,11.52
2022-11-06T12:28:44.023Z,11.47
2022-11-06T12:34:06.920Z,11.52
2022-11-06T12:39:18.334Z,11.51
2022-11-06T12:44:20.904Z,11.47
2022-11-06T12:49:26.381Z,11.44
2022-11-06T12:54:31.843Z,11.36
2022-11-06T12:59:46.971Z,11.31
2022-11-06T13:05:12.664Z,11.23
2022-11-06T13:10:26.574Z,11.13
2022-11-06T13:15:40.199Z,10.99
2022-11-06T13:20:45.586Z,10.87
2022-11-06T13:25:58.867Z,10.76
2022-11-06T13:31:05.665Z,10.63
2022-11-06T13:36:09.310Z,10.51
2022-11-06T13:41:18.612Z,10.35
2022-11-06T13:46:32.560Z,10.20
2022-11-06T13:51:43.406Z,10.08
2022-11-06T13:57:55.692Z,9.95
2022-11-06T14:03:04.077Z,9.77
2022-11-06T14:08:15.077Z,9.61
2022-11-06T14:13:24.765Z,9.47
2022-11-06T14:18:27.334Z,9.34
2022-11-06T14:23:29.757Z,9.20
2022-11-06T14:28:34.826Z,9.03
2022-11-06T14:33:40.302Z,8.86
2022-11-06T14:38:43.073Z,8.72
2022-11-06T14:43:50.664Z,8.55
2022-11-06T14:49:05.461Z,8.32
2022-11-06T14:54:21.185Z,8.06
2022-11-06T14:59:29.574Z,7.82
2022-11-06T15:04:34.856Z,7.60
2022-11-06T15:09:37.341Z,7.45
2022-11-06T15:14:39.805Z,7.26
2022-11-06T15:19:46.263Z,7.09
2022-11-06T15:24:54.507Z,6.94
2022-11-06T15:30:00.258Z,6.82
2022-11-06T15:35:11.392Z,6.69
2022-11-06T15:40:19.730Z,6.57
2022-11-06T15:45:26.206Z,6.49
2022-11-06T15:50:34.146Z,6.42
2022-11-06T15:55:39.853Z,6.32
2022-11-06T16:00:42.513Z,6.24
2022-11-06T16:05:46.151Z,6.18
2022-11-06T16:10:49.394Z,6.10
2022-11-06T16:16:01.678Z,5.98
2022-11-06T16:21:11.657Z,5.83
2022-11-06T16:26:24.156Z,5.70
2022-11-06T16:31:29.392Z,5.60
2022-11-06T16:36:49.510Z,5.47
2022-11-06T16:41:57.058Z,5.31
2022-11-06T16:47:10.359Z,5.19
2022-11-06T16:52:15.748Z,5.06
2022-11-06T16:57:23.141Z,4.99
2022-11-06T17:02:29.428Z,4.97
2022-11-06T17:07:32.031Z,4.94
2022-11-06T17:12:34.497Z,4.90
2022-11-06T17:17:40.142Z,4.84
2022-11-06T17:22:42.711Z,4.80
2022-11-06T17:27:45.284Z,4.78
2022-11-06T17:32:47.773Z,4.73
2022-11-06T17:37:50.601Z,4.69
2022-11-06T17:42:53.152Z,4.65
2022-11-06T17:47:55.709Z,4.60
2022-11-06T17:52:59.092Z,4.48
2022-11-06T17:58:01.697Z,4.42
2022-11-06T18:03:04.369Z,4.37
2022-11-06T18:08:06.951Z,4.31
2022-11-06T18:13:09.579Z,4.26
2022-11-06T18:18:14.844Z,4.19
2022-11-06T18:23:17.830Z,4.14
2022-11-06T18:28:20.514Z,4.05
2022-11-06T18:33:23.089Z,4.00
2022-11-06T18:38:26.392Z,3.97
2022-11-06T18:43:29.067Z,3.97
2022-11-06T18:48:32.399Z,3.96
2022-11-06T18:53:35.383Z,3.97
2022-11-06T18:58:38.720Z,4.00
2022-11-06T19:03:42.114Z,4.02
2022-11-06T19:08:45.297Z,4.01
2022-11-06T19:13:48.834Z,4.01
2022-11-06T19:24:05.582Z,4.04
2022-11-06T19:29:09.333Z,4.04
2022-11-06T19:34:12.640Z,4.01
2022-11-06T19:39:17.717Z,3.99
2022-11-06T19:44:20.386Z,3.98
2022-11-06T19:49:22.897Z,3.97
2022-11-06T19:54:25.416Z,3.98
2022-11-06T19:59:27.887Z,3.98
2022-11-06T20:04:30.352Z,3.97
2022-11-06T20:09:34.366Z,3.97
2022-11-06T20:14:36.895Z,4.01
2022-11-06T20:19:39.441Z,4.04
2022-11-06T20:24:41.983Z,4.04
2022-11-06T20:29:46.064Z,4.02
2022-11-06T20:34:48.571Z,4.00
2022-11-06T20:39:52.161Z,3.98
2022-11-06T20:44:54.797Z,3.92
2022-11-06T20:49:57.611Z,3.87
2022-11-06T20:55:00.267Z,3.85
2022-11-06T21:00:05.449Z,3.82
2022-11-06T21:05:08.326Z,3.78
2022-11-06T21:10:12.188Z,3.75
2022-11-06T21:15:15.016Z,3.71
2022-11-06T21:20:22.456Z,3.68
2022-11-06T21:25:25.412Z,3.66
2022-11-06T21:30:27.983Z,3.66
2022-11-06T21:35:30.473Z,3.69
2022-11-06T21:40:38.284Z,3.71
2022-11-06T21:45:40.738Z,3.74
2022-11-06T21:50:43.514Z,3.78
2022-11-06T21:55:53.696Z,3.83
2022-11-06T22:00:56.561Z,3.87
2022-11-06T22:06:03.679Z,3.88
2022-11-06T22:11:11.478Z,3.89
2022-11-06T22:16:17.141Z,3.89
2022-11-06T22:21:23.189Z,3.92
2022-11-06T22:26:29.684Z,3.90
2022-11-06T22:31:32.312Z,3.86
2022-11-06T22:36:39.164Z,3.82
2022-11-06T22:41:41.699Z,3.79
2022-11-06T22:46:45.535Z,3.73
2022-11-06T22:51:48.243Z,3.67
2022-11-06T22:56:50.781Z,3.61
2022-11-06T23:01:53.637Z,3.58
2022-11-06T23:06:56.169Z,3.57
2022-11-06T23:11:58.772Z,3.56
2022-11-06T23:17:01.440Z,3.55
2022-11-06T23:22:07.321Z,3.52
2022-11-06T23:27:11.336Z,3.47
2022-11-06T23:32:13.860Z,3.43
2022-11-06T23:37:16.384Z,3.42
2022-11-06T23:42:21.542Z,3.43
2022-11-06T23:47:24.088Z,3.42
2022-11-06T23:52:27.708Z,3.42
2022-11-06T23:57:30.269Z,3.43
